sensor_id;sensor_type;location;lat;lon;timestamp;temperature;humidity
8780;DHT22;62328;51.19929245;4.42130175;2023-10-09T00:01:43;17.10;99.90
8780;DHT22;62328;51.19929245;4.42130175;2023-10-09T00:04:12;17.00;99.90
8780;DHT22;62328;51.19929245;4.42130175;2023-10-09T00:06:40;17.00;99.90
8780;DHT22;62328;51.19929245;4.42130175;2023-10-09T00:09:08;17.00;99.90
8780;DHT22;62328;51.19929245;4.42130175;2023-10-09T00:11:56;17.10;99.90
8780;DHT22;62328;51.19929245;4.42130175;2023-10-09T00:14:26;17.10;99.90
8780;DHT22;62328;51.19929245;4.42130175;2023-10-09T00:16:56;17.10;99.90
8780;DHT22;62328;51.19929245;4.42130175;2023-10-09T00:19:31;17.10;99.90
8780;DHT22;62328;51.19929245;4.42130175;2023-10-09T00:21:59;17.00;99.90
8780;DHT22;62328;51.19929245;4.42130175;2023-10-09T00:24:32;17.10;99.90
8780;DHT22;62328;51.19929245;4.42130175;2023-10-09T00:26:59;17.10;99.90
8780;DHT22;62328;51.19929245;4.42130175;2023-10-09T00:29:39;17.10;99.90
8780;DHT22;62328;51.19929245;4.42130175;2023-10-09T00:32:10;17.20;99.90
8780;DHT22;62328;51.19929245;4.42130175;2023-10-09T00:34:48;17.10;99.90
8780;DHT22;62328;51.19929245;4.42130175;2023-10-09T00:37:17;17.10;99.90
8780;DHT22;62328;51.19929245;4.42130175;2023-10-09T00:39:50;17.20;99.90
8780;DHT22;62328;51.19929245;4.42130175;2023-10-09T00:42:23;17.20;99.90
8780;DHT22;62328;51.19929245;4.42130175;2023-10-09T00:44:56;17.20;99.90
8780;DHT22;62328;51.19929245;4.42130175;2023-10-09T00:47:28;17.20;99.90
8780;DHT22;62328;51.19929245;4.42130175;2023-10-09T00:50:01;17.30;99.90
8780;DHT22;62328;51.19929245;4.42130175;2023-10-09T00:52:37;17.30;99.90
8780;DHT22;62328;51.19929245;4.42130175;2023-10-09T00:55:11;17.30;99.90
8780;DHT22;62328;51.19929245;4.42130175;2023-10-09T00:57:42;17.30;99.90
8780;DHT22;62328;51.19929245;4.42130175;2023-10-09T01:00:15;17.30;99.90
8780;DHT22;62328;51.19929245;4.42130175;2023-10-09T01:02:58;17.30;99.90
8780;DHT22;62328;51.19929245;4.42130175;2023-10-09T01:05:45;17.30;99.90
8780;DHT22;62328;51.19929245;4.42130175;2023-10-09T01:08:18;17.30;99.90
8780;DHT22;62328;51.19929245;4.42130175;2023-10-09T01:10:51;17.30;99.90
8780;DHT22;62328;51.19929245;4.42130175;2023-10-09T01:13:23;17.30;99.90
8780;DHT22;62328;51.19929245;4.42130175;2023-10-09T01:15:55;17.30;99.90
8780;DHT22;62328;51.19929245;4.42130175;2023-10-09T01:18:25;17.30;99.90
8780;DHT22;62328;51.19929245;4.42130175;2023-10-09T01:21:01;17.30;99.90
8780;DHT22;62328;51.19929245;4.42130175;2023-10-09T01:23:30;17.40;99.90
8780;DHT22;62328;51.19929245;4.42130175;2023-10-09T01:25:57;17.40;99.90
8780;DHT22;62328;51.19929245;4.42130175;2023-10-09T01:28:25;17.30;99.90
8780;DHT22;62328;51.19929245;4.42130175;2023-10-09T01:30:54;17.30;99.90
8780;DHT22;62328;51.19929245;4.42130175;2023-10-09T01:33:21;17.30;99.90
8780;DHT22;62328;51.19929245;4.42130175;2023-10-09T01:35:49;17.30;99.90
8780;DHT22;62328;51.19929245;4.42130175;2023-10-09T01:38:23;17.30;99.90
8780;DHT22;62328;51.19929245;4.42130175;2023-10-09T01:41:00;17.20;99.90
8780;DHT22;62328;51.19929245;4.42130175;2023-10-09T01:43:33;17.20;99.90
8780;DHT22;62328;51.19929245;4.42130175;2023-10-09T01:46:01;17.20;99.90
8780;DHT22;62328;51.19929245;4.42130175;2023-10-09T01:48:29;17.20;99.90
8780;DHT22;62328;51.19929245;4.42130175;2023-10-09T01:50:59;17.20;99.90
8780;DHT22;62328;51.19929245;4.42130175;2023-10-09T01:53:30;17.20;99.90
8780;DHT22;62328;51.19929245;4.42130175;2023-10-09T01:56:09;17.20;99.90
8780;DHT22;62328;51.19929245;4.42130175;2023-10-09T01:58:41;17.20;99.90
8780;DHT22;62328;51.19929245;4.42130175;2023-10-09T02:01:10;17.20;99.90
8780;DHT22;62328;51.19929245;4.42130175;2023-10-09T02:03:38;17.20;99.90
8780;DHT22;62328;51.19929245;4.42130175;2023-10-09T02:06:07;17.20;99.90
8780;DHT22;62328;51.19929245;4.42130175;2023-10-09T02:08:52;17.10;99.90
8780;DHT22;62328;51.19929245;4.42130175;2023-10-09T02:11:20;17.10;99.90
8780;DHT22;62328;51.19929245;4.42130175;2023-10-09T02:14:03;17.10;99.90
8780;DHT22;62328;51.19929245;4.42130175;2023-10-09T02:16:42;17.10;99.90
8780;DHT22;62328;51.19929245;4.42130175;2023-10-09T02:19:09;17.10;99.90
8780;DHT22;62328;51.19929245;4.42130175;2023-10-09T02:21:54;17.00;99.90
8780;DHT22;62328;51.19929245;4.42130175;2023-10-09T02:24:23;17.10;99.90
8780;DHT22;62328;51.19929245;4.42130175;2023-10-09T02:27:10;17.10;99.90
8780;DHT22;62328;51.19929245;4.42130175;2023-10-09T02:29:38;17.10;99.90
8780;DHT22;62328;51.19929245;4.42130175;2023-10-09T02:32:07;17.00;99.90
8780;DHT22;62328;51.19929245;4.42130175;2023-10-09T02:34:50;17.10;99.90
8780;DHT22;62328;51.19929245;4.42130175;2023-10-09T02:37:19;17.00;99.90
8780;DHT22;62328;51.19929245;4.42130175;2023-10-09T02:39:49;17.00;99.90
8780;DHT22;62328;51.19929245;4.42130175;2023-10-09T02:42:19;17.00;99.90
8780;DHT22;62328;51.19929245;4.42130175;2023-10-09T02:44:49;17.00;99.90
8780;DHT22;62328;51.19929245;4.42130175;2023-10-09T02:47:17;16.90;99.90
8780;DHT22;62328;51.19929245;4.42130175;2023-10-09T02:49:48;16.90;99.90
8780;DHT22;62328;51.19929245;4.42130175;2023-10-09T02:52:16;16.90;99.90
8780;DHT22;62328;51.19929245;4.42130175;2023-10-09T02:54:45;16.90;99.90
8780;DHT22;62328;51.19929245;4.42130175;2023-10-09T02:57:13;16.90;99.90
8780;DHT22;62328;51.19929245;4.42130175;2023-10-09T02:59:49;16.90;99.90
8780;DHT22;62328;51.19929245;4.42130175;2023-10-09T03:02:18;17.00;99.90
8780;DHT22;62328;51.19929245;4.42130175;2023-10-09T03:04:45;16.90;99.90
8780;DHT22;62328;51.19929245;4.42130175;2023-10-09T03:07:12;16.90;99.90
8780;DHT22;62328;51.19929245;4.42130175;2023-10-09T03:09:39;16.90;99.90
8780;DHT22;62328;51.19929245;4.42130175;2023-10-09T03:12:07;16.90;99.90
8780;DHT22;62328;51.19929245;4.42130175;2023-10-09T03:14:38;16.90;99.90
8780;DHT22;62328;51.19929245;4.42130175;2023-10-09T03:17:07;16.90;99.90
8780;DHT22;62328;51.19929245;4.42130175;2023-10-09T03:19:36;16.90;99.90
8780;DHT22;62328;51.19929245;4.42130175;2023-10-09T03:22:05;16.90;99.90
8780;DHT22;62328;51.19929245;4.42130175;2023-10-09T03:24:34;16.80;99.90
8780;DHT22;62328;51.19929245;4.42130175;2023-10-09T03:27:02;16.80;99.90
8780;DHT22;62328;51.19929245;4.42130175;2023-10-09T03:29:29;16.80;99.90
8780;DHT22;62328;51.19929245;4.42130175;2023-10-09T03:31:56;16.80;99.90
8780;DHT22;62328;51.19929245;4.42130175;2023-10-09T03:34:24;16.90;99.90
8780;DHT22;62328;51.19929245;4.42130175;2023-10-09T03:36:51;16.90;99.90
8780;DHT22;62328;51.19929245;4.42130175;2023-10-09T03:39:29;16.90;99.90
8780;DHT22;62328;51.19929245;4.42130175;2023-10-09T03:42:04;16.90;99.90
8780;DHT22;62328;51.19929245;4.42130175;2023-10-09T03:44:31;16.90;99.90
8780;DHT22;62328;51.19929245;4.42130175;2023-10-09T03:47:00;16.90;99.90
8780;DHT22;62328;51.19929245;4.42130175;2023-10-09T03:49:29;16.90;99.90
8780;DHT22;62328;51.19929245;4.42130175;2023-10-09T03:51:57;16.90;99.90
8780;DHT22;62328;51.19929245;4.42130175;2023-10-09T03:54:25;16.90;99.90
8780;DHT22;62328;51.19929245;4.42130175;2023-10-09T03:56:55;16.80;99.90
8780;DHT22;62328;51.19929245;4.42130175;2023-10-09T03:59:24;16.70;99.90
8780;DHT22;62328;51.19929245;4.42130175;2023-10-09T04:01:57;16.70;99.90
8780;DHT22;62328;51.19929245;4.42130175;2023-10-09T04:04:24;16.70;99.90
8780;DHT22;62328;51.19929245;4.42130175;2023-10-09T04:06:55;16.70;99.90
8780;DHT22;62328;51.19929245;4.42130175;2023-10-09T04:09:22;16.70;99.90
8780;DHT22;62328;51.19929245;4.42130175;2023-10-09T04:12:01;16.70;99.90
8780;DHT22;62328;51.19929245;4.42130175;2023-10-09T04:14:50;16.80;99.90
8780;DHT22;62328;51.19929245;4.42130175;2023-10-09T04:17:20;16.70;99.90
8780;DHT22;62328;51.19929245;4.42130175;2023-10-09T04:20:00;16.70;99.90
8780;DHT22;62328;51.19929245;4.42130175;2023-10-09T04:22:46;16.80;99.90
8780;DHT22;62328;51.19929245;4.42130175;2023-10-09T04:25:17;16.80;99.90
8780;DHT22;62328;51.19929245;4.42130175;2023-10-09T04:27:52;16.80;99.90
8780;DHT22;62328;51.19929245;4.42130175;2023-10-09T04:30:26;16.70;99.90
8780;DHT22;62328;51.19929245;4.42130175;2023-10-09T04:32:53;16.70;99.90
8780;DHT22;62328;51.19929245;4.42130175;2023-10-09T04:35:29;16.70;99.90
8780;DHT22;62328;51.19929245;4.42130175;2023-10-09T04:37:57;16.70;99.90
8780;DHT22;62328;51.19929245;4.42130175;2023-10-09T04:40:30;16.60;99.90
8780;DHT22;62328;51.19929245;4.42130175;2023-10-09T04:43:18;16.60;99.90
8780;DHT22;62328;51.19929245;4.42130175;2023-10-09T04:45:47;16.60;99.90
8780;DHT22;62328;51.19929245;4.42130175;2023-10-09T04:48:31;16.50;99.90
8780;DHT22;62328;51.19929245;4.42130175;2023-10-09T04:51:05;16.50;99.90
8780;DHT22;62328;51.19929245;4.42130175;2023-10-09T04:53:47;16.50;99.90
8780;DHT22;62328;51.19929245;4.42130175;2023-10-09T04:56:20;16.60;99.90
8780;DHT22;62328;51.19929245;4.42130175;2023-10-09T04:58:50;16.60;99.90
8780;DHT22;62328;51.19929245;4.42130175;2023-10-09T05:01:29;16.60;99.90
8780;DHT22;62328;51.19929245;4.42130175;2023-10-09T05:04:07;16.60;99.90
8780;DHT22;62328;51.19929245;4.42130175;2023-10-09T05:06:52;16.60;99.90
8780;DHT22;62328;51.19929245;4.42130175;2023-10-09T05:09:23;16.60;99.90
8780;DHT22;62328;51.19929245;4.42130175;2023-10-09T05:11:51;16.60;99.90
8780;DHT22;62328;51.19929245;4.42130175;2023-10-09T05:14:41;16.50;99.90
8780;DHT22;62328;51.19929245;4.42130175;2023-10-09T05:17:28;16.50;99.90
8780;DHT22;62328;51.19929245;4.42130175;2023-10-09T05:19:54;16.60;99.90
8780;DHT22;62328;51.19929245;4.42130175;2023-10-09T05:22:47;16.50;99.90
8780;DHT22;62328;51.19929245;4.42130175;2023-10-09T05:25:25;16.50;99.90
8780;DHT22;62328;51.19929245;4.42130175;2023-10-09T05:28:21;16.50;99.90
8780;DHT22;62328;51.19929245;4.42130175;2023-10-09T05:31:14;16.60;99.90
8780;DHT22;62328;51.19929245;4.42130175;2023-10-09T05:34:02;16.50;99.90
8780;DHT22;62328;51.19929245;4.42130175;2023-10-09T05:36:32;16.50;99.90
8780;DHT22;62328;51.19929245;4.42130175;2023-10-09T05:39:01;16.50;99.90
8780;DHT22;62328;51.19929245;4.42130175;2023-10-09T05:41:57;16.50;99.90
8780;DHT22;62328;51.19929245;4.42130175;2023-10-09T05:44:33;16.50;99.90
8780;DHT22;62328;51.19929245;4.42130175;2023-10-09T05:47:18;16.40;99.90
8780;DHT22;62328;51.19929245;4.42130175;2023-10-09T05:49:58;16.40;99.90
8780;DHT22;62328;51.19929245;4.42130175;2023-10-09T05:52:43;16.50;99.90
8780;DHT22;62328;51.19929245;4.42130175;2023-10-09T05:55:31;16.40;99.90
8780;DHT22;62328;51.19929245;4.42130175;2023-10-09T05:58:17;16.40;99.90
8780;DHT22;62328;51.19929245;4.42130175;2023-10-09T06:01:01;16.40;99.90
8780;DHT22;62328;51.19929245;4.42130175;2023-10-09T06:03:52;16.40;99.90
8780;DHT22;62328;51.19929245;4.42130175;2023-10-09T06:06:30;16.50;99.90
8780;DHT22;62328;51.19929245;4.42130175;2023-10-09T06:09:00;16.50;99.90
8780;DHT22;62328;51.19929245;4.42130175;2023-10-09T06:11:45;16.50;99.90
8780;DHT22;62328;51.19929245;4.42130175;2023-10-09T06:14:17;16.50;99.90
8780;DHT22;62328;51.19929245;4.42130175;2023-10-09T06:16:51;16.50;99.90
8780;DHT22;62328;51.19929245;4.42130175;2023-10-09T06:19:27;16.50;99.90
8780;DHT22;62328;51.19929245;4.42130175;2023-10-09T06:21:54;16.50;99.90
8780;DHT22;62328;51.19929245;4.42130175;2023-10-09T06:24:56;16.50;99.90
8780;DHT22;62328;51.19929245;4.42130175;2023-10-09T06:27:23;16.50;99.90
8780;DHT22;62328;51.19929245;4.42130175;2023-10-09T06:30:14;16.50;99.90
8780;DHT22;62328;51.19929245;4.42130175;2023-10-09T06:32:49;16.50;99.90
8780;DHT22;62328;51.19929245;4.42130175;2023-10-09T06:35:23;16.50;99.90
8780;DHT22;62328;51.19929245;4.42130175;2023-10-09T06:37:58;16.60;99.90
8780;DHT22;62328;51.19929245;4.42130175;2023-10-09T06:40:48;16.60;99.90
8780;DHT22;62328;51.19929245;4.42130175;2023-10-09T06:43:33;16.60;99.90
8780;DHT22;62328;51.19929245;4.42130175;2023-10-09T06:46:15;16.60;99.90
8780;DHT22;62328;51.19929245;4.42130175;2023-10-09T06:49:00;16.60;99.90
8780;DHT22;62328;51.19929245;4.42130175;2023-10-09T06:51:44;16.60;99.90
8780;DHT22;62328;51.19929245;4.42130175;2023-10-09T06:54:13;16.60;99.90
8780;DHT22;62328;51.19929245;4.42130175;2023-10-09T06:56:41;16.70;99.90
8780;DHT22;62328;51.19929245;4.42130175;2023-10-09T06:59:25;16.60;99.90
8780;DHT22;62328;51.19929245;4.42130175;2023-10-09T07:02:08;16.70;99.90
8780;DHT22;62328;51.19929245;4.42130175;2023-10-09T07:04:49;16.70;99.90
8780;DHT22;62328;51.19929245;4.42130175;2023-10-09T07:07:20;16.80;99.90
8780;DHT22;62328;51.19929245;4.42130175;2023-10-09T07:09:51;16.70;99.90
8780;DHT22;62328;51.19929245;4.42130175;2023-10-09T07:12:36;16.70;99.90
8780;DHT22;62328;51.19929245;4.42130175;2023-10-09T07:15:08;16.70;99.90
8780;DHT22;62328;51.19929245;4.42130175;2023-10-09T07:18:03;16.70;99.90
8780;DHT22;62328;51.19929245;4.42130175;2023-10-09T07:20:45;16.70;99.90
8780;DHT22;62328;51.19929245;4.42130175;2023-10-09T07:23:25;16.70;99.90
8780;DHT22;62328;51.19929245;4.42130175;2023-10-09T07:26:02;16.80;99.90
8780;DHT22;62328;51.19929245;4.42130175;2023-10-09T07:28:44;16.80;99.90
8780;DHT22;62328;51.19929245;4.42130175;2023-10-09T07:31:17;16.80;99.90
8780;DHT22;62328;51.19929245;4.42130175;2023-10-09T07:33:54;16.90;99.90
8780;DHT22;62328;51.19929245;4.42130175;2023-10-09T07:36:24;16.90;99.90
8780;DHT22;62328;51.19929245;4.42130175;2023-10-09T07:39:03;16.90;99.90
8780;DHT22;62328;51.19929245;4.42130175;2023-10-09T07:41:39;16.90;99.90
8780;DHT22;62328;51.19929245;4.42130175;2023-10-09T07:44:10;16.90;99.90
8780;DHT22;62328;51.19929245;4.42130175;2023-10-09T07:47:01;17.00;99.90
8780;DHT22;62328;51.19929245;4.42130175;2023-10-09T07:49:46;17.00;99.90
8780;DHT22;62328;51.19929245;4.42130175;2023-10-09T07:52:20;17.00;99.90
8780;DHT22;62328;51.19929245;4.42130175;2023-10-09T07:54:51;17.00;99.90
8780;DHT22;62328;51.19929245;4.42130175;2023-10-09T07:57:27;17.00;99.90
8780;DHT22;62328;51.19929245;4.42130175;2023-10-09T08:00:05;17.10;99.90
8780;DHT22;62328;51.19929245;4.42130175;2023-10-09T08:02:59;17.20;99.90
8780;DHT22;62328;51.19929245;4.42130175;2023-10-09T08:05:29;17.30;99.90
8780;DHT22;62328;51.19929245;4.42130175;2023-10-09T08:08:01;17.30;99.90
8780;DHT22;62328;51.19929245;4.42130175;2023-10-09T08:10:42;17.30;99.90
8780;DHT22;62328;51.19929245;4.42130175;2023-10-09T08:13:26;17.30;99.90
8780;DHT22;62328;51.19929245;4.42130175;2023-10-09T08:16:11;17.30;99.90
8780;DHT22;62328;51.19929245;4.42130175;2023-10-09T08:18:46;17.30;99.90
8780;DHT22;62328;51.19929245;4.42130175;2023-10-09T08:21:14;17.30;99.90
8780;DHT22;62328;51.19929245;4.42130175;2023-10-09T08:24:07;17.30;99.90
8780;DHT22;62328;51.19929245;4.42130175;2023-10-09T08:26:53;17.40;99.90
8780;DHT22;62328;51.19929245;4.42130175;2023-10-09T08:29:39;17.40;99.90
8780;DHT22;62328;51.19929245;4.42130175;2023-10-09T08:32:12;17.40;99.90
8780;DHT22;62328;51.19929245;4.42130175;2023-10-09T08:35:04;17.50;99.90
8780;DHT22;62328;51.19929245;4.42130175;2023-10-09T08:37:46;17.50;99.90
8780;DHT22;62328;51.19929245;4.42130175;2023-10-09T08:40:14;17.60;99.90
8780;DHT22;62328;51.19929245;4.42130175;2023-10-09T08:42:51;17.60;99.90
8780;DHT22;62328;51.19929245;4.42130175;2023-10-09T08:45:21;17.60;99.90
8780;DHT22;62328;51.19929245;4.42130175;2023-10-09T08:47:52;17.70;99.90
8780;DHT22;62328;51.19929245;4.42130175;2023-10-09T08:50:20;17.70;99.90
8780;DHT22;62328;51.19929245;4.42130175;2023-10-09T08:52:48;17.70;99.90
8780;DHT22;62328;51.19929245;4.42130175;2023-10-09T08:55:17;17.80;99.90
8780;DHT22;62328;51.19929245;4.42130175;2023-10-09T08:57:45;17.80;99.90
8780;DHT22;62328;51.19929245;4.42130175;2023-10-09T09:00:17;17.90;99.90
8780;DHT22;62328;51.19929245;4.42130175;2023-10-09T09:02:47;18.00;99.90
8780;DHT22;62328;51.19929245;4.42130175;2023-10-09T09:05:18;18.00;99.90
8780;DHT22;62328;51.19929245;4.42130175;2023-10-09T09:07:45;18.10;99.90
8780;DHT22;62328;51.19929245;4.42130175;2023-10-09T09:10:15;18.10;99.90
8780;DHT22;62328;51.19929245;4.42130175;2023-10-09T09:12:47;18.20;99.90
8780;DHT22;62328;51.19929245;4.42130175;2023-10-09T09:15:19;18.20;99.90
8780;DHT22;62328;51.19929245;4.42130175;2023-10-09T09:17:47;18.30;99.90
8780;DHT22;62328;51.19929245;4.42130175;2023-10-09T09:20:23;18.30;99.90
8780;DHT22;62328;51.19929245;4.42130175;2023-10-09T09:22:54;18.30;99.90
8780;DHT22;62328;51.19929245;4.42130175;2023-10-09T09:25:24;18.40;99.90
8780;DHT22;62328;51.19929245;4.42130175;2023-10-09T09:28:05;18.40;99.90
8780;DHT22;62328;51.19929245;4.42130175;2023-10-09T09:30:38;18.50;99.90
8780;DHT22;62328;51.19929245;4.42130175;2023-10-09T09:33:20;18.50;99.90
8780;DHT22;62328;51.19929245;4.42130175;2023-10-09T09:35:59;18.60;99.90
8780;DHT22;62328;51.19929245;4.42130175;2023-10-09T09:38:30;18.70;99.90
8780;DHT22;62328;51.19929245;4.42130175;2023-10-09T09:41:09;18.70;99.90
8780;DHT22;62328;51.19929245;4.42130175;2023-10-09T09:43:37;18.70;99.90
8780;DHT22;62328;51.19929245;4.42130175;2023-10-09T09:46:07;18.80;99.90
8780;DHT22;62328;51.19929245;4.42130175;2023-10-09T09:48:40;18.80;99.90
8780;DHT22;62328;51.19929245;4.42130175;2023-10-09T09:51:12;18.80;99.90
8780;DHT22;62328;51.19929245;4.42130175;2023-10-09T09:53:40;18.80;99.90
8780;DHT22;62328;51.19929245;4.42130175;2023-10-09T09:56:09;18.90;99.90
8780;DHT22;62328;51.19929245;4.42130175;2023-10-09T10:01:13;19.10;99.90
8780;DHT22;62328;51.19929245;4.42130175;2023-10-09T10:03:51;19.10;99.90
8780;DHT22;62328;51.19929245;4.42130175;2023-10-09T10:06:22;19.20;99.90
8780;DHT22;62328;51.19929245;4.42130175;2023-10-09T10:08:52;19.30;99.90
8780;DHT22;62328;51.19929245;4.42130175;2023-10-09T10:11:54;19.40;99.90
8780;DHT22;62328;51.19929245;4.42130175;2023-10-09T10:14:51;19.50;99.90
8780;DHT22;62328;51.19929245;4.42130175;2023-10-09T10:17:19;19.50;99.90
8780;DHT22;62328;51.19929245;4.42130175;2023-10-09T10:20:01;19.60;99.90
8780;DHT22;62328;51.19929245;4.42130175;2023-10-09T10:22:49;19.50;99.90
8780;DHT22;62328;51.19929245;4.42130175;2023-10-09T10:25:32;19.60;99.90
8780;DHT22;62328;51.19929245;4.42130175;2023-10-09T10:28:21;19.60;99.90
8780;DHT22;62328;51.19929245;4.42130175;2023-10-09T10:31:07;19.50;99.90
8780;DHT22;62328;51.19929245;4.42130175;2023-10-09T10:34:04;19.50;99.90
8780;DHT22;62328;51.19929245;4.42130175;2023-10-09T10:36:36;19.50;99.90
8780;DHT22;62328;51.19929245;4.42130175;2023-10-09T10:39:08;19.40;99.90
8780;DHT22;62328;51.19929245;4.42130175;2023-10-09T10:41:37;19.50;99.90
8780;DHT22;62328;51.19929245;4.42130175;2023-10-09T10:44:24;19.50;99.90
8780;DHT22;62328;51.19929245;4.42130175;2023-10-09T10:47:02;19.40;99.90
8780;DHT22;62328;51.19929245;4.42130175;2023-10-09T10:49:30;19.50;99.90
8780;DHT22;62328;51.19929245;4.42130175;2023-10-09T10:52:03;19.40;99.90
8780;DHT22;62328;51.19929245;4.42130175;2023-10-09T10:54:43;19.50;99.90
8780;DHT22;62328;51.19929245;4.42130175;2023-10-09T10:57:35;19.50;99.90
8780;DHT22;62328;51.19929245;4.42130175;2023-10-09T11:00:20;19.50;99.90
8780;DHT22;62328;51.19929245;4.42130175;2023-10-09T11:03:05;19.50;99.90
8780;DHT22;62328;51.19929245;4.42130175;2023-10-09T11:05:46;19.50;99.90
8780;DHT22;62328;51.19929245;4.42130175;2023-10-09T11:08:17;19.60;99.90
8780;DHT22;62328;51.19929245;4.42130175;2023-10-09T11:10:49;19.70;99.90
8780;DHT22;62328;51.19929245;4.42130175;2023-10-09T11:13:23;19.70;99.90
8780;DHT22;62328;51.19929245;4.42130175;2023-10-09T11:16:04;19.70;99.90
8780;DHT22;62328;51.19929245;4.42130175;2023-10-09T11:18:54;19.70;99.90
8780;DHT22;62328;51.19929245;4.42130175;2023-10-09T11:21:23;19.70;99.90
8780;DHT22;62328;51.19929245;4.42130175;2023-10-09T11:23:58;19.80;99.90
8780;DHT22;62328;51.19929245;4.42130175;2023-10-09T11:26:25;19.80;99.90
8780;DHT22;62328;51.19929245;4.42130175;2023-10-09T11:29:09;19.80;99.90
8780;DHT22;62328;51.19929245;4.42130175;2023-10-09T11:31:59;19.80;99.90
8780;DHT22;62328;51.19929245;4.42130175;2023-10-09T11:34:27;19.80;99.90
8780;DHT22;62328;51.19929245;4.42130175;2023-10-09T11:36:58;19.90;99.90
8780;DHT22;62328;51.19929245;4.42130175;2023-10-09T11:39:30;19.90;99.90
8780;DHT22;62328;51.19929245;4.42130175;2023-10-09T11:42:09;19.90;99.90
8780;DHT22;62328;51.19929245;4.42130175;2023-10-09T11:44:55;19.90;99.90
8780;DHT22;62328;51.19929245;4.42130175;2023-10-09T11:47:34;19.90;99.90
8780;DHT22;62328;51.19929245;4.42130175;2023-10-09T11:50:01;19.90;99.90
8780;DHT22;62328;51.19929245;4.42130175;2023-10-09T11:52:55;19.90;99.90
8780;DHT22;62328;51.19929245;4.42130175;2023-10-09T11:55:40;20.00;99.90
8780;DHT22;62328;51.19929245;4.42130175;2023-10-09T11:58:07;20.00;99.90
8780;DHT22;62328;51.19929245;4.42130175;2023-10-09T12:00:34;20.00;99.90
8780;DHT22;62328;51.19929245;4.42130175;2023-10-09T12:03:13;20.00;99.90
8780;DHT22;62328;51.19929245;4.42130175;2023-10-09T12:05:40;20.00;99.90
8780;DHT22;62328;51.19929245;4.42130175;2023-10-09T12:08:11;20.00;99.90
8780;DHT22;62328;51.19929245;4.42130175;2023-10-09T12:10:41;20.00;99.90
8780;DHT22;62328;51.19929245;4.42130175;2023-10-09T12:13:08;20.10;99.90
8780;DHT22;62328;51.19929245;4.42130175;2023-10-09T12:15:35;20.10;99.90
8780;DHT22;62328;51.19929245;4.42130175;2023-10-09T12:18:06;20.10;99.90
8780;DHT22;62328;51.19929245;4.42130175;2023-10-09T12:20:42;20.10;99.90
8780;DHT22;62328;51.19929245;4.42130175;2023-10-09T12:23:15;20.20;99.90
8780;DHT22;62328;51.19929245;4.42130175;2023-10-09T12:25:42;20.20;99.90
8780;DHT22;62328;51.19929245;4.42130175;2023-10-09T12:28:11;20.20;99.90
8780;DHT22;62328;51.19929245;4.42130175;2023-10-09T12:30:40;20.20;99.90
8780;DHT22;62328;51.19929245;4.42130175;2023-10-09T12:33:08;20.10;99.90
8780;DHT22;62328;51.19929245;4.42130175;2023-10-09T12:35:39;20.10;99.90
8780;DHT22;62328;51.19929245;4.42130175;2023-10-09T12:38:08;20.20;99.90
8780;DHT22;62328;51.19929245;4.42130175;2023-10-09T12:40:36;20.20;99.90
8780;DHT22;62328;51.19929245;4.42130175;2023-10-09T12:43:05;20.20;99.90
8780;DHT22;62328;51.19929245;4.42130175;2023-10-09T12:45:41;20.20;99.90
8780;DHT22;62328;51.19929245;4.42130175;2023-10-09T12:48:08;20.20;99.90
8780;DHT22;62328;51.19929245;4.42130175;2023-10-09T12:50:35;20.10;99.90
8780;DHT22;62328;51.19929245;4.42130175;2023-10-09T12:53:08;20.10;99.90
8780;DHT22;62328;51.19929245;4.42130175;2023-10-09T12:55:36;20.10;99.90
8780;DHT22;62328;51.19929245;4.42130175;2023-10-09T12:58:07;20.10;99.90
8780;DHT22;62328;51.19929245;4.42130175;2023-10-09T13:00:35;20.10;99.90
8780;DHT22;62328;51.19929245;4.42130175;2023-10-09T13:03:06;20.10;99.90
8780;DHT22;62328;51.19929245;4.42130175;2023-10-09T13:05:46;20.10;99.90
8780;DHT22;62328;51.19929245;4.42130175;2023-10-09T13:08:23;20.10;99.90
8780;DHT22;62328;51.19929245;4.42130175;2023-10-09T13:10:57;20.20;99.90
8780;DHT22;62328;51.19929245;4.42130175;2023-10-09T13:13:30;20.40;99.90
8780;DHT22;62328;51.19929245;4.42130175;2023-10-09T13:16:10;20.40;99.90
8780;DHT22;62328;51.19929245;4.42130175;2023-10-09T13:18:48;20.50;99.90
8780;DHT22;62328;51.19929245;4.42130175;2023-10-09T13:21:17;20.50;99.90
8780;DHT22;62328;51.19929245;4.42130175;2023-10-09T13:23:46;20.50;99.90
8780;DHT22;62328;51.19929245;4.42130175;2023-10-09T13:26:17;20.30;99.90
8780;DHT22;62328;51.19929245;4.42130175;2023-10-09T13:28:48;20.60;99.90
8780;DHT22;62328;51.19929245;4.42130175;2023-10-09T13:31:16;20.60;99.90
8780;DHT22;62328;51.19929245;4.42130175;2023-10-09T13:33:43;20.50;99.90
8780;DHT22;62328;51.19929245;4.42130175;2023-10-09T13:36:13;20.50;99.90
8780;DHT22;62328;51.19929245;4.42130175;2023-10-09T13:38:46;20.50;99.90
8780;DHT22;62328;51.19929245;4.42130175;2023-10-09T13:41:14;20.40;99.90
8780;DHT22;62328;51.19929245;4.42130175;2023-10-09T13:43:43;20.40;99.90
8780;DHT22;62328;51.19929245;4.42130175;2023-10-09T13:46:11;20.40;99.90
8780;DHT22;62328;51.19929245;4.42130175;2023-10-09T13:48:40;20.30;99.90
8780;DHT22;62328;51.19929245;4.42130175;2023-10-09T13:51:09;20.20;99.90
8780;DHT22;62328;51.19929245;4.42130175;2023-10-09T13:53:40;20.20;99.90
8780;DHT22;62328;51.19929245;4.42130175;2023-10-09T13:56:13;20.20;99.90
8780;DHT22;62328;51.19929245;4.42130175;2023-10-09T13:58:45;20.20;99.90
8780;DHT22;62328;51.19929245;4.42130175;2023-10-09T14:01:12;20.20;99.90
8780;DHT22;62328;51.19929245;4.42130175;2023-10-09T14:03:47;20.20;99.90
8780;DHT22;62328;51.19929245;4.42130175;2023-10-09T14:06:17;20.20;99.90
8780;DHT22;62328;51.19929245;4.42130175;2023-10-09T14:08:56;20.10;99.90
8780;DHT22;62328;51.19929245;4.42130175;2023-10-09T14:11:24;20.10;99.90
8780;DHT22;62328;51.19929245;4.42130175;2023-10-09T14:13:52;20.10;99.90
8780;DHT22;62328;51.19929245;4.42130175;2023-10-09T14:16:19;20.10;99.90
8780;DHT22;62328;51.19929245;4.42130175;2023-10-09T14:18:55;20.00;99.90